sensor_id;sensor_type;location;lat;lon;timestamp;P1;durP1;ratioP1;P2;durP2;ratioP2
53666;SDS011;39568;51.026;5.468;2023-08-07T00:01:21;5.40;;;2.10;;
53666;SDS011;39568;51.026;5.468;2023-08-07T00:03:48;9.30;;;2.50;;
53666;SDS011;39568;51.026;5.468;2023-08-07T00:06:14;6.38;;;2.25;;
53666;SDS011;39568;51.026;5.468;2023-08-07T00:08:42;7.80;;;1.88;;
53666;SDS011;39568;51.026;5.468;2023-08-07T00:11:10;9.50;;;3.13;;
53666;SDS011;39568;51.026;5.468;2023-08-07T00:13:37;15.23;;;2.60;;
53666;SDS011;39568;51.026;5.468;2023-08-07T00:16:03;14.18;;;4.03;;
53666;SDS011;39568;51.026;5.468;2023-08-07T00:18:30;23.38;;;3.92;;
53666;SDS011;39568;51.026;5.468;2023-08-07T00:20:57;12.57;;;2.20;;
53666;SDS011;39568;51.026;5.468;2023-08-07T00:23:23;19.75;;;2.85;;
53666;SDS011;39568;51.026;5.468;2023-08-07T00:25:51;14.65;;;2.15;;
53666;SDS011;39568;51.026;5.468;2023-08-07T00:28:18;9.05;;;2.42;;
53666;SDS011;39568;51.026;5.468;2023-08-07T00:30:45;7.43;;;2.30;;
53666;SDS011;39568;51.026;5.468;2023-08-07T00:33:11;9.70;;;3.20;;
53666;SDS011;39568;51.026;5.468;2023-08-07T00:35:38;13.68;;;2.88;;
53666;SDS011;39568;51.026;5.468;2023-08-07T00:38:05;8.57;;;2.25;;
53666;SDS011;39568;51.026;5.468;2023-08-07T00:40:40;11.27;;;2.75;;
53666;SDS011;39568;51.026;5.468;2023-08-07T00:43:08;22.65;;;3.13;;
53666;SDS011;39568;51.026;5.468;2023-08-07T00:45:36;12.82;;;3.50;;
53666;SDS011;39568;51.026;5.468;2023-08-07T00:48:06;12.95;;;2.63;;
53666;SDS011;39568;51.026;5.468;2023-08-07T00:50:33;19.38;;;3.28;;
53666;SDS011;39568;51.026;5.468;2023-08-07T00:53:00;21.20;;;4.03;;
53666;SDS011;39568;51.026;5.468;2023-08-07T00:55:27;19.50;;;4.07;;
53666;SDS011;39568;51.026;5.468;2023-08-07T00:57:54;5.00;;;3.33;;
53666;SDS011;39568;51.026;5.468;2023-08-07T01:00:22;12.20;;;2.88;;
53666;SDS011;39568;51.026;5.468;2023-08-07T01:02:49;2.70;;;1.98;;
53666;SDS011;39568;51.026;5.468;2023-08-07T01:05:17;18.15;;;2.30;;
53666;SDS011;39568;51.026;5.468;2023-08-07T01:07:46;13.95;;;3.22;;
53666;SDS011;39568;51.026;5.468;2023-08-07T01:10:13;17.60;;;5.32;;
53666;SDS011;39568;51.026;5.468;2023-08-07T01:12:42;15.13;;;2.85;;
53666;SDS011;39568;51.026;5.468;2023-08-07T01:15:15;9.00;;;2.83;;
53666;SDS011;39568;51.026;5.468;2023-08-07T01:17:47;5.53;;;1.90;;
53666;SDS011;39568;51.026;5.468;2023-08-07T01:20:16;6.85;;;3.03;;
53666;SDS011;39568;51.026;5.468;2023-08-07T01:22:44;12.15;;;1.50;;
53666;SDS011;39568;51.026;5.468;2023-08-07T01:25:11;14.88;;;3.03;;
53666;SDS011;39568;51.026;5.468;2023-08-07T01:27:40;15.00;;;2.78;;
53666;SDS011;39568;51.026;5.468;2023-08-07T01:30:15;6.25;;;1.58;;
53666;SDS011;39568;51.026;5.468;2023-08-07T01:32:49;7.20;;;2.72;;
53666;SDS011;39568;51.026;5.468;2023-08-07T01:35:23;10.70;;;2.33;;
53666;SDS011;39568;51.026;5.468;2023-08-07T01:37:56;11.63;;;3.07;;
53666;SDS011;39568;51.026;5.468;2023-08-07T01:40:24;20.63;;;3.15;;
53666;SDS011;39568;51.026;5.468;2023-08-07T01:42:50;5.47;;;1.90;;
53666;SDS011;39568;51.026;5.468;2023-08-07T01:45:22;7.10;;;1.08;;
53666;SDS011;39568;51.026;5.468;2023-08-07T01:47:49;14.98;;;2.80;;
53666;SDS011;39568;51.026;5.468;2023-08-07T01:50:16;15.25;;;2.88;;
53666;SDS011;39568;51.026;5.468;2023-08-07T01:52:42;9.80;;;1.70;;
53666;SDS011;39568;51.026;5.468;2023-08-07T01:55:10;7.18;;;2.35;;
53666;SDS011;39568;51.026;5.468;2023-08-07T01:57:37;5.03;;;2.85;;
53666;SDS011;39568;51.026;5.468;2023-08-07T02:00:04;7.93;;;2.75;;
53666;SDS011;39568;51.026;5.468;2023-08-07T02:02:33;20.25;;;2.50;;
53666;SDS011;39568;51.026;5.468;2023-08-07T02:05:00;7.35;;;2.42;;
53666;SDS011;39568;51.026;5.468;2023-08-07T02:07:26;7.60;;;2.78;;
53666;SDS011;39568;51.026;5.468;2023-08-07T02:09:53;12.00;;;2.47;;
53666;SDS011;39568;51.026;5.468;2023-08-07T02:12:21;6.80;;;2.40;;
53666;SDS011;39568;51.026;5.468;2023-08-07T02:14:48;8.85;;;1.80;;
53666;SDS011;39568;51.026;5.468;2023-08-07T02:17:14;4.90;;;2.35;;
53666;SDS011;39568;51.026;5.468;2023-08-07T02:19:41;4.03;;;2.55;;
53666;SDS011;39568;51.026;5.468;2023-08-07T02:22:07;8.52;;;3.17;;
53666;SDS011;39568;51.026;5.468;2023-08-07T02:24:34;9.48;;;3.05;;
53666;SDS011;39568;51.026;5.468;2023-08-07T02:27:01;24.58;;;4.55;;
53666;SDS011;39568;51.026;5.468;2023-08-07T02:29:28;13.32;;;2.88;;
53666;SDS011;39568;51.026;5.468;2023-08-07T02:31:55;4.50;;;2.45;;
53666;SDS011;39568;51.026;5.468;2023-08-07T02:34:21;10.35;;;3.50;;
53666;SDS011;39568;51.026;5.468;2023-08-07T02:36:48;15.10;;;4.18;;
53666;SDS011;39568;51.026;5.468;2023-08-07T02:39:15;12.40;;;2.95;;
53666;SDS011;39568;51.026;5.468;2023-08-07T02:41:41;10.02;;;3.15;;
53666;SDS011;39568;51.026;5.468;2023-08-07T02:44:08;8.45;;;2.78;;
53666;SDS011;39568;51.026;5.468;2023-08-07T02:46:36;6.65;;;3.05;;
53666;SDS011;39568;51.026;5.468;2023-08-07T02:49:03;9.73;;;3.42;;
53666;SDS011;39568;51.026;5.468;2023-08-07T02:51:30;8.57;;;2.20;;
53666;SDS011;39568;51.026;5.468;2023-08-07T02:53:56;14.90;;;3.70;;
53666;SDS011;39568;51.026;5.468;2023-08-07T02:56:23;22.38;;;3.50;;
53666;SDS011;39568;51.026;5.468;2023-08-07T02:58:49;14.02;;;3.00;;
53666;SDS011;39568;51.026;5.468;2023-08-07T03:01:18;19.95;;;2.58;;
53666;SDS011;39568;51.026;5.468;2023-08-07T03:03:47;9.38;;;4.05;;
53666;SDS011;39568;51.026;5.468;2023-08-07T03:06:14;8.63;;;3.15;;
53666;SDS011;39568;51.026;5.468;2023-08-07T03:08:40;1.83;;;1.70;;
53666;SDS011;39568;51.026;5.468;2023-08-07T03:11:07;9.02;;;3.17;;
53666;SDS011;39568;51.026;5.468;2023-08-07T03:13:34;14.15;;;3.22;;
53666;SDS011;39568;51.026;5.468;2023-08-07T03:16:01;23.23;;;6.05;;
53666;SDS011;39568;51.026;5.468;2023-08-07T03:18:29;7.25;;;2.08;;
53666;SDS011;39568;51.026;5.468;2023-08-07T03:20:57;13.23;;;3.95;;
53666;SDS011;39568;51.026;5.468;2023-08-07T03:23:25;8.45;;;2.20;;
53666;SDS011;39568;51.026;5.468;2023-08-07T03:26:01;12.85;;;3.00;;
53666;SDS011;39568;51.026;5.468;2023-08-07T03:28:28;19.38;;;3.53;;
53666;SDS011;39568;51.026;5.468;2023-08-07T03:30:55;8.32;;;3.25;;
53666;SDS011;39568;51.026;5.468;2023-08-07T03:33:21;3.47;;;2.53;;
53666;SDS011;39568;51.026;5.468;2023-08-07T03:35:48;9.70;;;2.70;;
53666;SDS011;39568;51.026;5.468;2023-08-07T03:38:16;11.98;;;3.20;;
53666;SDS011;39568;51.026;5.468;2023-08-07T03:40:43;9.25;;;2.42;;
53666;SDS011;39568;51.026;5.468;2023-08-07T03:43:10;14.82;;;2.55;;
53666;SDS011;39568;51.026;5.468;2023-08-07T03:45:37;20.15;;;4.22;;
53666;SDS011;39568;51.026;5.468;2023-08-07T03:48:04;5.63;;;2.10;;
53666;SDS011;39568;51.026;5.468;2023-08-07T03:50:31;17.83;;;2.58;;
53666;SDS011;39568;51.026;5.468;2023-08-07T03:53:00;2.90;;;2.20;;
53666;SDS011;39568;51.026;5.468;2023-08-07T03:55:28;7.55;;;2.22;;
53666;SDS011;39568;51.026;5.468;2023-08-07T03:57:54;7.53;;;2.22;;
53666;SDS011;39568;51.026;5.468;2023-08-07T04:00:21;4.88;;;2.13;;
53666;SDS011;39568;51.026;5.468;2023-08-07T04:02:48;8.65;;;1.92;;
53666;SDS011;39568;51.026;5.468;2023-08-07T04:05:14;8.13;;;2.75;;
53666;SDS011;39568;51.026;5.468;2023-08-07T04:07:41;6.03;;;2.13;;
53666;SDS011;39568;51.026;5.468;2023-08-07T04:10:08;13.80;;;3.35;;
53666;SDS011;39568;51.026;5.468;2023-08-07T04:12:37;8.57;;;2.22;;
53666;SDS011;39568;51.026;5.468;2023-08-07T04:15:04;9.20;;;2.22;;
53666;SDS011;39568;51.026;5.468;2023-08-07T04:17:31;22.27;;;2.88;;
53666;SDS011;39568;51.026;5.468;2023-08-07T04:19:58;14.73;;;2.20;;
53666;SDS011;39568;51.026;5.468;2023-08-07T04:22:25;10.07;;;2.95;;
53666;SDS011;39568;51.026;5.468;2023-08-07T04:24:51;3.53;;;1.95;;
53666;SDS011;39568;51.026;5.468;2023-08-07T04:27:18;8.07;;;2.60;;
53666;SDS011;39568;51.026;5.468;2023-08-07T04:29:46;13.98;;;3.05;;
53666;SDS011;39568;51.026;5.468;2023-08-07T04:32:13;6.20;;;2.70;;
53666;SDS011;39568;51.026;5.468;2023-08-07T04:34:39;21.52;;;3.00;;
53666;SDS011;39568;51.026;5.468;2023-08-07T04:37:06;10.25;;;2.22;;
53666;SDS011;39568;51.026;5.468;2023-08-07T04:39:33;7.97;;;3.00;;
53666;SDS011;39568;51.026;5.468;2023-08-07T04:42:00;10.40;;;1.67;;
53666;SDS011;39568;51.026;5.468;2023-08-07T04:44:27;5.68;;;2.60;;
53666;SDS011;39568;51.026;5.468;2023-08-07T04:46:55;11.10;;;2.33;;
53666;SDS011;39568;51.026;5.468;2023-08-07T04:49:22;9.23;;;2.75;;
53666;SDS011;39568;51.026;5.468;2023-08-07T04:51:48;8.00;;;1.65;;
53666;SDS011;39568;51.026;5.468;2023-08-07T04:54:15;5.22;;;2.20;;
53666;SDS011;39568;51.026;5.468;2023-08-07T04:56:42;6.97;;;2.88;;
53666;SDS011;39568;51.026;5.468;2023-08-07T04:59:09;4.15;;;1.25;;
53666;SDS011;39568;51.026;5.468;2023-08-07T05:01:36;13.52;;;2.58;;
53666;SDS011;39568;51.026;5.468;2023-08-07T05:04:04;2.25;;;1.45;;
53666;SDS011;39568;51.026;5.468;2023-08-07T05:06:31;9.43;;;2.30;;
53666;SDS011;39568;51.026;5.468;2023-08-07T05:08:58;8.13;;;2.05;;
53666;SDS011;39568;51.026;5.468;2023-08-07T05:11:24;12.65;;;2.72;;
53666;SDS011;39568;51.026;5.468;2023-08-07T05:13:51;9.05;;;2.15;;
53666;SDS011;39568;51.026;5.468;2023-08-07T05:16:18;19.02;;;3.70;;
53666;SDS011;39568;51.026;5.468;2023-08-07T05:18:44;3.95;;;2.08;;
53666;SDS011;39568;51.026;5.468;2023-08-07T05:21:12;11.23;;;2.30;;
53666;SDS011;39568;51.026;5.468;2023-08-07T05:23:39;12.57;;;2.80;;
53666;SDS011;39568;51.026;5.468;2023-08-07T05:26:06;11.88;;;2.15;;
53666;SDS011;39568;51.026;5.468;2023-08-07T05:28:32;5.25;;;2.45;;
53666;SDS011;39568;51.026;5.468;2023-08-07T05:30:59;8.38;;;2.33;;
53666;SDS011;39568;51.026;5.468;2023-08-07T05:33:26;12.45;;;2.67;;
53666;SDS011;39568;51.026;5.468;2023-08-07T05:35:52;7.32;;;2.92;;
53666;SDS011;39568;51.026;5.468;2023-08-07T05:38:22;9.88;;;2.30;;
53666;SDS011;39568;51.026;5.468;2023-08-07T05:40:48;8.77;;;2.13;;
53666;SDS011;39568;51.026;5.468;2023-08-07T05:43:16;11.35;;;2.45;;
53666;SDS011;39568;51.026;5.468;2023-08-07T05:45:43;9.88;;;2.22;;
53666;SDS011;39568;51.026;5.468;2023-08-07T05:48:11;5.13;;;2.30;;
53666;SDS011;39568;51.026;5.468;2023-08-07T05:50:38;6.20;;;2.63;;
53666;SDS011;39568;51.026;5.468;2023-08-07T05:53:04;7.40;;;2.22;;
53666;SDS011;39568;51.026;5.468;2023-08-07T05:55:33;12.68;;;2.47;;
53666;SDS011;39568;51.026;5.468;2023-08-07T05:57:59;8.70;;;2.30;;
53666;SDS011;39568;51.026;5.468;2023-08-07T06:00:26;12.88;;;1.85;;
53666;SDS011;39568;51.026;5.468;2023-08-07T06:02:53;6.82;;;2.67;;
53666;SDS011;39568;51.026;5.468;2023-08-07T06:05:20;4.60;;;1.55;;
53666;SDS011;39568;51.026;5.468;2023-08-07T06:07:46;10.45;;;2.67;;
53666;SDS011;39568;51.026;5.468;2023-08-07T06:10:13;3.65;;;1.42;;
53666;SDS011;39568;51.026;5.468;2023-08-07T06:12:41;7.30;;;1.60;;
53666;SDS011;39568;51.026;5.468;2023-08-07T06:15:08;5.38;;;2.00;;
53666;SDS011;39568;51.026;5.468;2023-08-07T06:17:36;2.60;;;1.25;;
53666;SDS011;39568;51.026;5.468;2023-08-07T06:20:05;10.43;;;2.08;;
53666;SDS011;39568;51.026;5.468;2023-08-07T06:22:34;1.08;;;1.02;;
53666;SDS011;39568;51.026;5.468;2023-08-07T06:25:01;13.57;;;2.13;;
53666;SDS011;39568;51.026;5.468;2023-08-07T06:27:27;9.07;;;2.08;;
53666;SDS011;39568;51.026;5.468;2023-08-07T06:29:57;15.60;;;1.63;;
53666;SDS011;39568;51.026;5.468;2023-08-07T06:32:24;1.60;;;1.35;;
53666;SDS011;39568;51.026;5.468;2023-08-07T06:34:51;3.83;;;2.00;;
53666;SDS011;39568;51.026;5.468;2023-08-07T06:37:17;16.10;;;1.92;;
53666;SDS011;39568;51.026;5.468;2023-08-07T06:39:44;7.15;;;2.38;;
53666;SDS011;39568;51.026;5.468;2023-08-07T06:42:11;9.82;;;2.28;;
53666;SDS011;39568;51.026;5.468;2023-08-07T06:44:38;8.77;;;1.98;;
53666;SDS011;39568;51.026;5.468;2023-08-07T06:47:06;5.72;;;2.03;;
53666;SDS011;39568;51.026;5.468;2023-08-07T06:49:33;10.65;;;2.38;;
53666;SDS011;39568;51.026;5.468;2023-08-07T06:52:00;11.40;;;1.83;;
53666;SDS011;39568;51.026;5.468;2023-08-07T06:54:27;4.68;;;2.63;;
53666;SDS011;39568;51.026;5.468;2023-08-07T06:56:53;7.75;;;1.70;;
53666;SDS011;39568;51.026;5.468;2023-08-07T06:59:20;11.18;;;1.95;;
53666;SDS011;39568;51.026;5.468;2023-08-07T07:01:47;4.97;;;1.17;;
53666;SDS011;39568;51.026;5.468;2023-08-07T07:04:15;7.13;;;2.00;;
53666;SDS011;39568;51.026;5.468;2023-08-07T07:06:43;7.30;;;2.80;;
53666;SDS011;39568;51.026;5.468;2023-08-07T07:09:09;3.92;;;1.80;;
53666;SDS011;39568;51.026;5.468;2023-08-07T07:11:41;3.50;;;2.10;;
53666;SDS011;39568;51.026;5.468;2023-08-07T07:14:08;3.10;;;2.58;;
53666;SDS011;39568;51.026;5.468;2023-08-07T07:16:35;7.50;;;2.20;;
53666;SDS011;39568;51.026;5.468;2023-08-07T07:19:03;3.47;;;2.50;;
53666;SDS011;39568;51.026;5.468;2023-08-07T07:21:31;5.57;;;1.58;;
53666;SDS011;39568;51.026;5.468;2023-08-07T07:23:58;2.95;;;2.17;;
53666;SDS011;39568;51.026;5.468;2023-08-07T07:26:25;7.32;;;1.58;;
53666;SDS011;39568;51.026;5.468;2023-08-07T07:28:52;5.50;;;1.08;;
53666;SDS011;39568;51.026;5.468;2023-08-07T07:31:18;7.97;;;2.17;;
53666;SDS011;39568;51.026;5.468;2023-08-07T07:33:45;8.82;;;1.80;;
53666;SDS011;39568;51.026;5.468;2023-08-07T07:36:15;2.30;;;1.58;;
53666;SDS011;39568;51.026;5.468;2023-08-07T07:38:44;2.70;;;1.48;;
53666;SDS011;39568;51.026;5.468;2023-08-07T07:41:11;4.15;;;2.67;;
53666;SDS011;39568;51.026;5.468;2023-08-07T07:43:38;2.72;;;1.80;;
53666;SDS011;39568;51.026;5.468;2023-08-07T07:46:05;4.43;;;1.63;;
53666;SDS011;39568;51.026;5.468;2023-08-07T07:48:32;10.68;;;2.72;;
53666;SDS011;39568;51.026;5.468;2023-08-07T07:50:58;2.58;;;1.77;;
53666;SDS011;39568;51.026;5.468;2023-08-07T07:53:25;3.17;;;1.20;;
53666;SDS011;39568;51.026;5.468;2023-08-07T07:55:53;5.78;;;2.15;;
53666;SDS011;39568;51.026;5.468;2023-08-07T07:58:20;3.10;;;1.92;;
53666;SDS011;39568;51.026;5.468;2023-08-07T08:00:47;6.47;;;2.75;;
53666;SDS011;39568;51.026;5.468;2023-08-07T08:03:14;2.25;;;1.80;;
53666;SDS011;39568;51.026;5.468;2023-08-07T08:05:40;3.33;;;1.10;;
53666;SDS011;39568;51.026;5.468;2023-08-07T08:08:07;1.83;;;1.70;;
53666;SDS011;39568;51.026;5.468;2023-08-07T08:10:34;7.20;;;2.10;;
53666;SDS011;39568;51.026;5.468;2023-08-07T08:13:02;6.88;;;2.30;;
53666;SDS011;39568;51.026;5.468;2023-08-07T08:15:29;6.35;;;2.33;;
53666;SDS011;39568;51.026;5.468;2023-08-07T08:17:56;9.55;;;2.22;;
53666;SDS011;39568;51.026;5.468;2023-08-07T08:20:23;3.58;;;1.55;;
53666;SDS011;39568;51.026;5.468;2023-08-07T08:22:49;6.32;;;2.10;;
53666;SDS011;39568;51.026;5.468;2023-08-07T08:25:16;14.10;;;2.83;;
53666;SDS011;39568;51.026;5.468;2023-08-07T08:27:43;3.65;;;2.03;;
53666;SDS011;39568;51.026;5.468;2023-08-07T08:30:12;3.47;;;2.25;;
53666;SDS011;39568;51.026;5.468;2023-08-07T08:32:38;5.82;;;2.05;;
53666;SDS011;39568;51.026;5.468;2023-08-07T08:35:05;7.00;;;2.63;;
53666;SDS011;39568;51.026;5.468;2023-08-07T08:37:33;2.80;;;1.70;;
53666;SDS011;39568;51.026;5.468;2023-08-07T08:39:59;8.07;;;1.55;;
53666;SDS011;39568;51.026;5.468;2023-08-07T08:42:26;4.70;;;1.90;;
53666;SDS011;39568;51.026;5.468;2023-08-07T08:44:55;6.53;;;2.35;;
53666;SDS011;39568;51.026;5.468;2023-08-07T08:47:26;5.28;;;1.88;;
53666;SDS011;39568;51.026;5.468;2023-08-07T08:49:54;2.97;;;1.50;;
53666;SDS011;39568;51.026;5.468;2023-08-07T08:52:26;2.45;;;1.60;;
53666;SDS011;39568;51.026;5.468;2023-08-07T08:54:54;7.68;;;2.42;;
53666;SDS011;39568;51.026;5.468;2023-08-07T08:57:22;1.45;;;1.33;;
53666;SDS011;39568;51.026;5.468;2023-08-07T08:59:49;5.28;;;1.75;;
53666;SDS011;39568;51.026;5.468;2023-08-07T09:02:16;6.88;;;1.67;;
53666;SDS011;39568;51.026;5.468;2023-08-07T09:04:45;4.50;;;2.25;;
53666;SDS011;39568;51.026;5.468;2023-08-07T09:07:11;3.63;;;1.58;;
53666;SDS011;39568;51.026;5.468;2023-08-07T09:09:40;4.88;;;2.13;;
53666;SDS011;39568;51.026;5.468;2023-08-07T09:12:10;4.97;;;1.25;;
53666;SDS011;39568;51.026;5.468;2023-08-07T09:14:42;1.42;;;1.25;;
53666;SDS011;39568;51.026;5.468;2023-08-07T09:17:11;3.97;;;1.80;;
53666;SDS011;39568;51.026;5.468;2023-08-07T09:19:39;4.80;;;1.50;;
53666;SDS011;39568;51.026;5.468;2023-08-07T09:22:07;6.60;;;2.38;;
53666;SDS011;39568;51.026;5.468;2023-08-07T09:24:34;10.38;;;1.17;;
53666;SDS011;39568;51.026;5.468;2023-08-07T09:27:02;7.38;;;2.08;;
53666;SDS011;39568;51.026;5.468;2023-08-07T09:29:30;5.13;;;1.60;;
53666;SDS011;39568;51.026;5.468;2023-08-07T09:32:00;3.72;;;1.02;;
53666;SDS011;39568;51.026;5.468;2023-08-07T09:34:33;4.32;;;1.73;;
53666;SDS011;39568;51.026;5.468;2023-08-07T09:37:00;11.63;;;1.42;;
53666;SDS011;39568;51.026;5.468;2023-08-07T09:39:29;1.20;;;0.82;;
53666;SDS011;39568;51.026;5.468;2023-08-07T09:41:56;1.52;;;1.13;;
53666;SDS011;39568;51.026;5.468;2023-08-07T09:44:22;9.65;;;1.80;;
53666;SDS011;39568;51.026;5.468;2023-08-07T09:46:49;3.97;;;2.13;;
53666;SDS011;39568;51.026;5.468;2023-08-07T09:49:16;6.05;;;1.48;;
53666;SDS011;39568;51.026;5.468;2023-08-07T09:51:43;6.80;;;1.95;;
53666;SDS011;39568;51.026;5.468;2023-08-07T09:54:10;7.88;;;1.10;;
53666;SDS011;39568;51.026;5.468;2023-08-07T09:56:38;6.28;;;1.60;;
53666;SDS011;39568;51.026;5.468;2023-08-07T09:59:06;1.77;;;1.20;;
53666;SDS011;39568;51.026;5.468;2023-08-07T10:01:36;8.15;;;1.60;;
53666;SDS011;39568;51.026;5.468;2023-08-07T10:04:05;4.57;;;1.45;;
53666;SDS011;39568;51.026;5.468;2023-08-07T10:06:32;3.03;;;1.70;;
53666;SDS011;39568;51.026;5.468;2023-08-07T10:09:00;2.67;;;1.63;;
53666;SDS011;39568;51.026;5.468;2023-08-07T10:11:30;3.60;;;1.08;;
53666;SDS011;39568;51.026;5.468;2023-08-07T10:13:59;2.20;;;1.25;;
53666;SDS011;39568;51.026;5.468;2023-08-07T10:16:26;3.58;;;2.13;;
53666;SDS011;39568;51.026;5.468;2023-08-07T10:18:53;1.50;;;1.45;;
53666;SDS011;39568;51.026;5.468;2023-08-07T10:21:20;10.57;;;1.65;;
53666;SDS011;39568;51.026;5.468;2023-08-07T10:23:48;2.53;;;1.05;;
53666;SDS011;39568;51.026;5.468;2023-08-07T10:26:18;10.27;;;2.22;;
53666;SDS011;39568;51.026;5.468;2023-08-07T10:28:48;4.28;;;2.35;;
53666;SDS011;39568;51.026;5.468;2023-08-07T10:31:18;11.55;;;2.08;;
53666;SDS011;39568;51.026;5.468;2023-08-07T10:33:47;13.48;;;2.08;;
53666;SDS011;39568;51.026;5.468;2023-08-07T10:36:15;5.70;;;2.10;;
53666;SDS011;39568;51.026;5.468;2023-08-07T10:38:42;8.57;;;2.83;;
53666;SDS011;39568;51.026;5.468;2023-08-07T10:41:09;6.32;;;1.52;;
53666;SDS011;39568;51.026;5.468;2023-08-07T10:43:38;5.63;;;1.60;;
53666;SDS011;39568;51.026;5.468;2023-08-07T10:46:05;5.70;;;2.40;;
53666;SDS011;39568;51.026;5.468;2023-08-07T10:48:41;2.50;;;1.17;;
53666;SDS011;39568;51.026;5.468;2023-08-07T10:51:08;12.82;;;2.25;;
53666;SDS011;39568;51.026;5.468;2023-08-07T10:53:39;4.13;;;1.98;;
53666;SDS011;39568;51.026;5.468;2023-08-07T10:56:08;3.05;;;2.33;;
53666;SDS011;39568;51.026;5.468;2023-08-07T10:58:36;2.70;;;1.80;;
53666;SDS011;39568;51.026;5.468;2023-08-07T11:01:19;1.88;;;1.45;;
53666;SDS011;39568;51.026;5.468;2023-08-07T11:03:49;6.45;;;2.08;;
53666;SDS011;39568;51.026;5.468;2023-08-07T11:06:17;7.82;;;1.77;;
53666;SDS011;39568;51.026;5.468;2023-08-07T11:08:47;8.52;;;1.83;;
53666;SDS011;39568;51.026;5.468;2023-08-07T11:11:14;1.63;;;1.45;;
53666;SDS011;39568;51.026;5.468;2023-08-07T11:13:41;3.53;;;1.60;;
53666;SDS011;39568;51.026;5.468;2023-08-07T11:16:07;1.38;;;1.27;;
53666;SDS011;39568;51.026;5.468;2023-08-07T11:18:34;3.85;;;1.27;;
53666;SDS011;39568;51.026;5.468;2023-08-07T11:21:05;3.78;;;1.15;;
53666;SDS011;39568;51.026;5.468;2023-08-07T11:23:31;2.38;;;1.40;;
53666;SDS011;39568;51.026;5.468;2023-08-07T11:25:58;4.53;;;1.50;;
53666;SDS011;39568;51.026;5.468;2023-08-07T11:28:25;6.45;;;1.50;;
53666;SDS011;39568;51.026;5.468;2023-08-07T11:30:52;5.38;;;1.85;;
53666;SDS011;39568;51.026;5.468;2023-08-07T11:33:20;2.08;;;1.50;;
53666;SDS011;39568;51.026;5.468;2023-08-07T11:35:48;4.18;;;1.40;;
53666;SDS011;39568;51.026;5.468;2023-08-07T11:38:28;1.70;;;1.20;;
53666;SDS011;39568;51.026;5.468;2023-08-07T11:40:56;7.25;;;2.33;;
53666;SDS011;39568;51.026;5.468;2023-08-07T11:43:24;2.33;;;1.45;;
53666;SDS011;39568;51.026;5.468;2023-08-07T11:45:52;4.63;;;1.30;;
53666;SDS011;39568;51.026;5.468;2023-08-07T11:48:23;3.83;;;1.23;;
53666;SDS011;39568;51.026;5.468;2023-08-07T11:50:50;2.47;;;1.20;;
53666;SDS011;39568;51.026;5.468;2023-08-07T11:53:18;9.13;;;2.25;;
53666;SDS011;39568;51.026;5.468;2023-08-07T11:55:51;2.47;;;0.95;;
53666;SDS011;39568;51.026;5.468;2023-08-07T11:58:20;2.35;;;1.70;;
53666;SDS011;39568;51.026;5.468;2023-08-07T12:00:47;4.35;;;1.60;;
53666;SDS011;39568;51.026;5.468;2023-08-07T12:03:24;5.00;;;1.50;;
53666;SDS011;39568;51.026;5.468;2023-08-07T12:05:52;2.35;;;1.30;;
53666;SDS011;39568;51.026;5.468;2023-08-07T12:08:21;1.00;;;0.80;;
53666;SDS011;39568;51.026;5.468;2023-08-07T12:10:51;2.70;;;1.35;;
53666;SDS011;39568;51.026;5.468;2023-08-07T12:13:24;3.80;;;0.73;;
53666;SDS011;39568;51.026;5.468;2023-08-07T12:15:53;5.55;;;2.70;;
53666;SDS011;39568;51.026;5.468;2023-08-07T12:18:20;0.57;;;0.57;;
53666;SDS011;39568;51.026;5.468;2023-08-07T12:20:48;2.35;;;1.00;;
53666;SDS011;39568;51.026;5.468;2023-08-07T12:23:15;4.68;;;1.45;;
53666;SDS011;39568;51.026;5.468;2023-08-07T12:25:44;1.50;;;0.75;;
53666;SDS011;39568;51.026;5.468;2023-08-07T12:28:11;2.15;;;0.98;;
53666;SDS011;39568;51.026;5.468;2023-08-07T12:30:38;4.63;;;1.83;;
53666;SDS011;39568;51.026;5.468;2023-08-07T12:33:05;2.00;;;0.88;;
53666;SDS011;39568;51.026;5.468;2023-08-07T12:35:32;2.15;;;0.70;;
53666;SDS011;39568;51.026;5.468;2023-08-07T12:37:59;1.50;;;0.85;;
53666;SDS011;39568;51.026;5.468;2023-08-07T12:40:27;1.65;;;1.13;;
53666;SDS011;39568;51.026;5.468;2023-08-07T12:42:55;0.70;;;0.70;;
53666;SDS011;39568;51.026;5.468;2023-08-07T12:45:22;0.75;;;0.75;;
53666;SDS011;39568;51.026;5.468;2023-08-07T12:47:48;0.85;;;0.85;;
53666;SDS011;39568;51.026;5.468;2023-08-07T12:50:15;0.50;;;0.40;;
53666;SDS011;39568;51.026;5.468;2023-08-07T12:52:42;2.38;;;1.13;;
53666;SDS011;39568;51.026;5.468;2023-08-07T12:55:09;2.03;;;1.08;;
53666;SDS011;39568;51.026;5.468;2023-08-07T12:57:37;1.00;;;0.90;;
53666;SDS011;39568;51.026;5.468;2023-08-07T13:00:08;1.48;;;0.80;;
53666;SDS011;39568;51.026;5.468;2023-08-07T13:02:37;1.20;;;1.00;;
53666;SDS011;39568;51.026;5.468;2023-08-07T13:05:04;1.13;;;1.02;;
53666;SDS011;39568;51.026;5.468;2023-08-07T13:07:31;1.77;;;0.80;;
53666;SDS011;39568;51.026;5.468;2023-08-07T13:09:58;1.10;;;1.10;;
53666;SDS011;39568;51.026;5.468;2023-08-07T13:12:24;3.63;;;1.10;;
53666;SDS011;39568;51.026;5.468;2023-08-07T13:14:51;1.52;;;1.30;;
53666;SDS011;39568;51.026;5.468;2023-08-07T13:17:19;1.92;;;1.25;;
53666;SDS011;39568;51.026;5.468;2023-08-07T13:19:45;0.82;;;0.82;;
53666;SDS011;39568;51.026;5.468;2023-08-07T13:22:12;1.05;;;1.05;;
53666;SDS011;39568;51.026;5.468;2023-08-07T13:24:39;1.42;;;1.20;;
53666;SDS011;39568;51.026;5.468;2023-08-07T13:27:06;2.00;;;0.98;;
53666;SDS011;39568;51.026;5.468;2023-08-07T13:29:32;1.48;;;1.35;;
53666;SDS011;39568;51.026;5.468;2023-08-07T13:31:59;0.98;;;0.98;;
53666;SDS011;39568;51.026;5.468;2023-08-07T13:34:30;6.30;;;1.73;;
53666;SDS011;39568;51.026;5.468;2023-08-07T13:36:56;2.20;;;0.90;;
53666;SDS011;39568;51.026;5.468;2023-08-07T13:39:24;0.75;;;0.70;;
53666;SDS011;39568;51.026;5.468;2023-08-07T13:41:51;1.23;;;1.02;;
53666;SDS011;39568;51.026;5.468;2023-08-07T13:44:17;2.60;;;1.20;;
53666;SDS011;39568;51.026;5.468;2023-08-07T13:46:45;0.80;;;0.80;;
53666;SDS011;39568;51.026;5.468;2023-08-07T13:49:12;0.90;;;0.90;;
53666;SDS011;39568;51.026;5.468;2023-08-07T13:51:41;1.67;;;0.43;;
53666;SDS011;39568;51.026;5.468;2023-08-07T13:54:07;1.15;;;1.13;;
53666;SDS011;39568;51.026;5.468;2023-08-07T13:56:34;2.78;;;1.00;;
53666;SDS011;39568;51.026;5.468;2023-08-07T13:59:01;2.70;;;1.10;;
53666;SDS011;39568;51.026;5.468;2023-08-07T14:01:28;0.50;;;0.50;;
53666;SDS011;39568;51.026;5.468;2023-08-07T14:03:54;1.15;;;0.50;;
53666;SDS011;39568;51.026;5.468;2023-08-07T14:06:21;0.75;;;0.70;;
53666;SDS011;39568;51.026;5.468;2023-08-07T14:11:39;1.27;;;0.80;;
53666;SDS011;39568;51.026;5.468;2023-08-07T14:14:06;5.53;;;0.55;;
53666;SDS011;39568;51.026;5.468;2023-08-07T14:16:32;1.70;;;1.33;;
53666;SDS011;39568;51.026;5.468;2023-08-07T14:18:59;0.90;;;0.90;;
53666;SDS011;39568;51.026;5.468;2023-08-07T14:21:26;0.50;;;0.50;;
53666;SDS011;39568;51.026;5.468;2023-08-07T14:23:53;1.17;;;0.95;;
53666;SDS011;39568;51.026;5.468;2023-08-07T14:26:21;1.85;;;0.80;;
53666;SDS011;39568;51.026;5.468;2023-08-07T14:28:47;1.67;;;0.70;;
53666;SDS011;39568;51.026;5.468;2023-08-07T14:31:14;0.75;;;0.60;;
53666;SDS011;39568;51.026;5.468;2023-08-07T14:33:41;2.78;;;1.05;;
53666;SDS011;39568;51.026;5.468;2023-08-07T14:36:07;4.85;;;1.30;;
53666;SDS011;39568;51.026;5.468;2023-08-07T14:38:34;0.85;;;0.85;;
53666;SDS011;39568;51.026;5.468;2023-08-07T14:41:01;1.10;;;1.00;;
53666;SDS011;39568;51.026;5.468;2023-08-07T14:43:29;2.13;;;0.90;;
53666;SDS011;39568;51.026;5.468;2023-08-07T14:45:56;3.20;;;1.27;;
53666;SDS011;39568;51.026;5.468;2023-08-07T14:48:23;1.95;;;1.15;;
53666;SDS011;39568;51.026;5.468;2023-08-07T14:50:50;0.70;;;0.70;;